sensor_id;sensor_type;location;lat;lon;timestamp;P1;durP1;ratioP1;P2;durP2;ratioP2
22046;SDS011;11187;49.412;20.956;2022-08-04T00:02:34;21.40;;;19.80;;
22046;SDS011;11187;49.412;20.956;2022-08-04T00:11:25;23.40;;;21.50;;
22046;SDS011;11187;49.412;20.956;2022-08-04T00:14:04;22.10;;;20.27;;
22046;SDS011;11187;49.412;20.956;2022-08-04T00:16:56;21.67;;;20.15;;
22046;SDS011;11187;49.412;20.956;2022-08-04T00:19:31;21.15;;;19.65;;
22046;SDS011;11187;49.412;20.956;2022-08-04T00:22:27;21.20;;;19.38;;
22046;SDS011;11187;49.412;20.956;2022-08-04T00:25:03;21.55;;;20.05;;
22046;SDS011;11187;49.412;20.956;2022-08-04T00:27:51;23.38;;;21.73;;
22046;SDS011;11187;49.412;20.956;2022-08-04T00:30:25;22.55;;;21.00;;
22046;SDS011;11187;49.412;20.956;2022-08-04T00:33:14;20.88;;;19.17;;
22046;SDS011;11187;49.412;20.956;2022-08-04T00:36:12;22.85;;;20.88;;
22046;SDS011;11187;49.412;20.956;2022-08-04T00:38:45;21.65;;;20.15;;
22046;SDS011;11187;49.412;20.956;2022-08-04T00:58:11;25.42;;;22.95;;
22046;SDS011;11187;49.412;20.956;2022-08-04T01:01:07;24.63;;;22.20;;
22046;SDS011;11187;49.412;20.956;2022-08-04T01:04:44;24.45;;;22.10;;
22046;SDS011;11187;49.412;20.956;2022-08-04T01:15:38;36.13;;;25.92;;
22046;SDS011;11187;49.412;20.956;2022-08-04T01:18:35;31.20;;;24.65;;
22046;SDS011;11187;49.412;20.956;2022-08-04T01:21:45;37.67;;;23.73;;
22046;SDS011;11187;49.412;20.956;2022-08-04T01:24:50;24.85;;;22.05;;
22046;SDS011;11187;49.412;20.956;2022-08-04T01:31:30;25.50;;;23.35;;
22046;SDS011;11187;49.412;20.956;2022-08-04T01:34:23;21.40;;;19.70;;
22046;SDS011;11187;49.412;20.956;2022-08-04T01:40:07;22.02;;;20.20;;
22046;SDS011;11187;49.412;20.956;2022-08-04T01:43:01;21.95;;;20.45;;
22046;SDS011;11187;49.412;20.956;2022-08-04T01:45:57;22.88;;;21.30;;
22046;SDS011;11187;49.412;20.956;2022-08-04T01:48:32;20.95;;;19.55;;
22046;SDS011;11187;49.412;20.956;2022-08-04T01:51:23;23.65;;;21.67;;
22046;SDS011;11187;49.412;20.956;2022-08-04T01:53:56;39.83;;;28.60;;
22046;SDS011;11187;49.412;20.956;2022-08-04T01:56:48;44.55;;;34.60;;
22046;SDS011;11187;49.412;20.956;2022-08-04T01:59:21;47.65;;;31.95;;
22046;SDS011;11187;49.412;20.956;2022-08-04T02:02:10;39.90;;;29.58;;
22046;SDS011;11187;49.412;20.956;2022-08-04T02:04:44;30.83;;;27.58;;
22046;SDS011;11187;49.412;20.956;2022-08-04T02:13:32;28.88;;;25.88;;
22046;SDS011;11187;49.412;20.956;2022-08-04T02:16:28;26.67;;;23.92;;
22046;SDS011;11187;49.412;20.956;2022-08-04T02:19:31;22.35;;;20.48;;
22046;SDS011;11187;49.412;20.956;2022-08-04T02:22:08;22.70;;;20.73;;
22046;SDS011;11187;49.412;20.956;2022-08-04T02:25:06;22.83;;;21.27;;
22046;SDS011;11187;49.412;20.956;2022-08-04T02:27:53;21.60;;;19.80;;
22046;SDS011;11187;49.412;20.956;2022-08-04T02:33:44;23.35;;;21.55;;
22046;SDS011;11187;49.412;20.956;2022-08-04T02:36:38;23.75;;;21.85;;
22046;SDS011;11187;49.412;20.956;2022-08-04T02:39:12;20.80;;;19.27;;
22046;SDS011;11187;49.412;20.956;2022-08-04T02:42:04;21.25;;;19.73;;
22046;SDS011;11187;49.412;20.956;2022-08-04T02:44:38;23.27;;;21.58;;
22046;SDS011;11187;49.412;20.956;2022-08-04T02:47:27;23.63;;;21.80;;
22046;SDS011;11187;49.412;20.956;2022-08-04T02:50:20;25.10;;;22.80;;
22046;SDS011;11187;49.412;20.956;2022-08-04T02:53:10;25.05;;;22.88;;
22046;SDS011;11187;49.412;20.956;2022-08-04T02:55:56;24.45;;;22.25;;
22046;SDS011;11187;49.412;20.956;2022-08-04T02:58:33;24.88;;;22.67;;
22046;SDS011;11187;49.412;20.956;2022-08-04T03:01:21;23.00;;;21.17;;
22046;SDS011;11187;49.412;20.956;2022-08-04T03:16:53;22.88;;;20.98;;
22046;SDS011;11187;49.412;20.956;2022-08-04T03:23:35;21.77;;;19.70;;
22046;SDS011;11187;49.412;20.956;2022-08-04T03:30:26;23.17;;;20.77;;
22046;SDS011;11187;49.412;20.956;2022-08-04T03:36:37;23.90;;;21.48;;
22046;SDS011;11187;49.412;20.956;2022-08-04T03:58:38;20.63;;;19.13;;
22046;SDS011;11187;49.412;20.956;2022-08-04T04:01:33;20.57;;;19.00;;
22046;SDS011;11187;49.412;20.956;2022-08-04T04:08:11;19.58;;;17.90;;
22046;SDS011;11187;49.412;20.956;2022-08-04T04:11:32;19.50;;;17.77;;
22046;SDS011;11187;49.412;20.956;2022-08-04T04:24:37;20.05;;;18.48;;
22046;SDS011;11187;49.412;20.956;2022-08-04T04:27:18;20.15;;;18.23;;
22046;SDS011;11187;49.412;20.956;2022-08-04T04:34:03;20.77;;;19.08;;
22046;SDS011;11187;49.412;20.956;2022-08-04T04:37:09;20.48;;;18.90;;
22046;SDS011;11187;49.412;20.956;2022-08-04T04:43:22;20.90;;;18.85;;
22046;SDS011;11187;49.412;20.956;2022-08-04T04:52:37;18.60;;;17.13;;
22046;SDS011;11187;49.412;20.956;2022-08-04T04:55:17;20.40;;;18.77;;
22046;SDS011;11187;49.412;20.956;2022-08-04T04:58:13;17.85;;;16.55;;
22046;SDS011;11187;49.412;20.956;2022-08-04T05:01:07;20.00;;;18.60;;
22046;SDS011;11187;49.412;20.956;2022-08-04T05:10:09;19.45;;;17.77;;
22046;SDS011;11187;49.412;20.956;2022-08-04T05:16:40;18.20;;;16.55;;
22046;SDS011;11187;49.412;20.956;2022-08-04T05:22:47;19.10;;;17.73;;
22046;SDS011;11187;49.412;20.956;2022-08-04T05:28:47;19.20;;;17.80;;
22046;SDS011;11187;49.412;20.956;2022-08-04T05:31:28;20.33;;;18.75;;
22046;SDS011;11187;49.412;20.956;2022-08-04T05:34:29;18.63;;;17.33;;
22046;SDS011;11187;49.412;20.956;2022-08-04T05:37:27;19.13;;;17.52;;
22046;SDS011;11187;49.412;20.956;2022-08-04T05:40:04;18.92;;;17.63;;
22046;SDS011;11187;49.412;20.956;2022-08-04T05:42:52;19.90;;;18.60;;
22046;SDS011;11187;49.412;20.956;2022-08-04T05:45:27;21.02;;;19.60;;
22046;SDS011;11187;49.412;20.956;2022-08-04T05:48:22;19.40;;;17.85;;
22046;SDS011;11187;49.412;20.956;2022-08-04T05:50:56;17.95;;;16.45;;
22046;SDS011;11187;49.412;20.956;2022-08-04T05:53:44;20.73;;;19.25;;
22046;SDS011;11187;49.412;20.956;2022-08-04T05:56:18;18.10;;;16.80;;
22046;SDS011;11187;49.412;20.956;2022-08-04T05:59:05;19.80;;;18.27;;
22046;SDS011;11187;49.412;20.956;2022-08-04T06:01:40;18.75;;;17.45;;
22046;SDS011;11187;49.412;20.956;2022-08-04T06:04:37;19.42;;;17.92;;
22046;SDS011;11187;49.412;20.956;2022-08-04T06:07:32;21.75;;;20.35;;
22046;SDS011;11187;49.412;20.956;2022-08-04T06:10:46;19.52;;;18.23;;
22046;SDS011;11187;49.412;20.956;2022-08-04T06:13:25;18.70;;;17.35;;
22046;SDS011;11187;49.412;20.956;2022-08-04T06:16:39;18.40;;;16.85;;
22046;SDS011;11187;49.412;20.956;2022-08-04T06:19:17;20.65;;;19.05;;
22046;SDS011;11187;49.412;20.956;2022-08-04T06:22:27;21.85;;;20.40;;
22046;SDS011;11187;49.412;20.956;2022-08-04T06:25:02;20.95;;;19.38;;
22046;SDS011;11187;49.412;20.956;2022-08-04T06:27:51;18.23;;;16.95;;
22046;SDS011;11187;49.412;20.956;2022-08-04T06:30:27;19.65;;;18.15;;
22046;SDS011;11187;49.412;20.956;2022-08-04T06:33:16;18.65;;;17.25;;
22046;SDS011;11187;49.412;20.956;2022-08-04T06:36:33;18.52;;;17.08;;
22046;SDS011;11187;49.412;20.956;2022-08-04T06:39:29;19.60;;;18.20;;
22046;SDS011;11187;49.412;20.956;2022-08-04T06:42:25;21.40;;;19.75;;
22046;SDS011;11187;49.412;20.956;2022-08-04T06:45:21;20.08;;;18.50;;
22046;SDS011;11187;49.412;20.956;2022-08-04T06:48:17;17.85;;;16.35;;
22046;SDS011;11187;49.412;20.956;2022-08-04T06:50:59;18.73;;;17.05;;
22046;SDS011;11187;49.412;20.956;2022-08-04T06:54:13;19.02;;;17.17;;
22046;SDS011;11187;49.412;20.956;2022-08-04T06:56:46;19.17;;;17.58;;
22046;SDS011;11187;49.412;20.956;2022-08-04T06:59:35;18.13;;;16.50;;
22046;SDS011;11187;49.412;20.956;2022-08-04T07:02:11;20.08;;;18.60;;
22046;SDS011;11187;49.412;20.956;2022-08-04T07:05:00;19.00;;;17.60;;
22046;SDS011;11187;49.412;20.956;2022-08-04T07:07:33;19.23;;;17.85;;
22046;SDS011;11187;49.412;20.956;2022-08-04T07:10:36;19.80;;;18.17;;
22046;SDS011;11187;49.412;20.956;2022-08-04T07:13:10;17.60;;;16.27;;
22046;SDS011;11187;49.412;20.956;2022-08-04T07:16:05;17.83;;;16.52;;
22046;SDS011;11187;49.412;20.956;2022-08-04T07:18:40;17.25;;;15.95;;
22046;SDS011;11187;49.412;20.956;2022-08-04T07:21:26;18.50;;;17.10;;
22046;SDS011;11187;49.412;20.956;2022-08-04T07:23:59;18.40;;;16.90;;
22046;SDS011;11187;49.412;20.956;2022-08-04T07:26:48;16.60;;;15.50;;
22046;SDS011;11187;49.412;20.956;2022-08-04T07:29:23;16.80;;;15.40;;
22046;SDS011;11187;49.412;20.956;2022-08-04T07:32:10;16.50;;;15.32;;
22046;SDS011;11187;49.412;20.956;2022-08-04T07:34:46;18.73;;;17.23;;
22046;SDS011;11187;49.412;20.956;2022-08-04T07:37:41;17.05;;;15.68;;
22046;SDS011;11187;49.412;20.956;2022-08-04T07:40:37;16.48;;;15.27;;
22046;SDS011;11187;49.412;20.956;2022-08-04T07:43:13;15.77;;;14.35;;
22046;SDS011;11187;49.412;20.956;2022-08-04T07:46:01;17.35;;;16.15;;
22046;SDS011;11187;49.412;20.956;2022-08-04T07:48:34;16.25;;;15.15;;
22046;SDS011;11187;49.412;20.956;2022-08-04T07:51:21;16.35;;;15.20;;
22046;SDS011;11187;49.412;20.956;2022-08-04T07:53:55;19.95;;;18.67;;
22046;SDS011;11187;49.412;20.956;2022-08-04T07:56:37;16.75;;;15.52;;
22046;SDS011;11187;49.412;20.956;2022-08-04T07:59:18;16.58;;;15.18;;
22046;SDS011;11187;49.412;20.956;2022-08-04T08:01:59;17.08;;;15.98;;
22046;SDS011;11187;49.412;20.956;2022-08-04T08:04:39;17.17;;;15.60;;
22046;SDS011;11187;49.412;20.956;2022-08-04T08:07:13;18.90;;;17.70;;
22046;SDS011;11187;49.412;20.956;2022-08-04T08:09:59;16.15;;;14.95;;
22046;SDS011;11187;49.412;20.956;2022-08-04T08:12:33;16.80;;;15.68;;
22046;SDS011;11187;49.412;20.956;2022-08-04T08:15:23;17.35;;;16.10;;
22046;SDS011;11187;49.412;20.956;2022-08-04T08:18:04;17.00;;;15.70;;
22046;SDS011;11187;49.412;20.956;2022-08-04T08:20:38;15.73;;;14.70;;
22046;SDS011;11187;49.412;20.956;2022-08-04T08:23:24;16.70;;;15.43;;
22046;SDS011;11187;49.412;20.956;2022-08-04T08:25:58;16.35;;;15.20;;
22046;SDS011;11187;49.412;20.956;2022-08-04T08:28:45;16.05;;;14.82;;
22046;SDS011;11187;49.412;20.956;2022-08-04T08:31:19;17.80;;;16.70;;
22046;SDS011;11187;49.412;20.956;2022-08-04T08:34:32;17.70;;;16.45;;
22046;SDS011;11187;49.412;20.956;2022-08-04T08:37:46;18.60;;;17.50;;
22046;SDS011;11187;49.412;20.956;2022-08-04T08:40:35;20.02;;;18.77;;
22046;SDS011;11187;49.412;20.956;2022-08-04T08:53:53;16.95;;;15.68;;
22046;SDS011;11187;49.412;20.956;2022-08-04T09:02:43;16.77;;;15.63;;
22046;SDS011;11187;49.412;20.956;2022-08-04T09:11:44;18.58;;;17.27;;
22046;SDS011;11187;49.412;20.956;2022-08-04T09:14:49;18.23;;;17.13;;
22046;SDS011;11187;49.412;20.956;2022-08-04T09:17:26;17.70;;;16.50;;
22046;SDS011;11187;49.412;20.956;2022-08-04T09:20:33;17.40;;;16.35;;
22046;SDS011;11187;49.412;20.956;2022-08-04T09:26:28;19.45;;;18.15;;
22046;SDS011;11187;49.412;20.956;2022-08-04T09:29:32;17.58;;;16.38;;
22046;SDS011;11187;49.412;20.956;2022-08-04T09:33:13;17.23;;;16.05;;
22046;SDS011;11187;49.412;20.956;2022-08-04T09:36:38;19.02;;;17.83;;
22046;SDS011;11187;49.412;20.956;2022-08-04T09:39:53;17.27;;;16.02;;
22046;SDS011;11187;49.412;20.956;2022-08-04T09:46:37;17.77;;;16.67;;
22046;SDS011;11187;49.412;20.956;2022-08-04T09:49:21;19.52;;;18.33;;
22046;SDS011;11187;49.412;20.956;2022-08-04T09:52:37;19.27;;;17.98;;
22046;SDS011;11187;49.412;20.956;2022-08-04T09:58:51;16.77;;;15.48;;
22046;SDS011;11187;49.412;20.956;2022-08-04T10:01:24;18.95;;;17.75;;
22046;SDS011;11187;49.412;20.956;2022-08-04T10:04:20;18.70;;;17.45;;
22046;SDS011;11187;49.412;20.956;2022-08-04T10:22:35;19.10;;;17.70;;
22046;SDS011;11187;49.412;20.956;2022-08-04T10:25:59;18.48;;;17.17;;
22046;SDS011;11187;49.412;20.956;2022-08-04T10:29:05;19.92;;;18.52;;
22046;SDS011;11187;49.412;20.956;2022-08-04T10:31:45;20.63;;;19.33;;
22046;SDS011;11187;49.412;20.956;2022-08-04T10:35:34;19.98;;;18.70;;
22046;SDS011;11187;49.412;20.956;2022-08-04T10:38:15;19.25;;;18.05;;
22046;SDS011;11187;49.412;20.956;2022-08-04T10:40:55;18.52;;;17.13;;
22046;SDS011;11187;49.412;20.956;2022-08-04T10:44:09;20.45;;;19.05;;
22046;SDS011;11187;49.412;20.956;2022-08-04T10:47:10;17.25;;;16.02;;
22046;SDS011;11187;49.412;20.956;2022-08-04T10:50:09;18.63;;;17.15;;
22046;SDS011;11187;49.412;20.956;2022-08-04T10:53:10;17.58;;;16.17;;
22046;SDS011;11187;49.412;20.956;2022-08-04T10:55:51;17.13;;;16.08;;
22046;SDS011;11187;49.412;20.956;2022-08-04T10:58:52;16.75;;;15.55;;
22046;SDS011;11187;49.412;20.956;2022-08-04T11:01:38;19.33;;;18.02;;
22046;SDS011;11187;49.412;20.956;2022-08-04T11:04:43;18.65;;;17.55;;
22046;SDS011;11187;49.412;20.956;2022-08-04T11:07:20;18.98;;;17.67;;
22046;SDS011;11187;49.412;20.956;2022-08-04T11:10:07;18.27;;;16.77;;
22046;SDS011;11187;49.412;20.956;2022-08-04T11:12:41;17.20;;;16.00;;
22046;SDS011;11187;49.412;20.956;2022-08-04T11:15:39;21.75;;;19.83;;
22046;SDS011;11187;49.412;20.956;2022-08-04T11:18:19;19.40;;;18.17;;
22046;SDS011;11187;49.412;20.956;2022-08-04T11:21:38;18.48;;;17.20;;
22046;SDS011;11187;49.412;20.956;2022-08-04T11:24:17;16.95;;;15.85;;
22046;SDS011;11187;49.412;20.956;2022-08-04T11:27:27;17.13;;;15.98;;
22046;SDS011;11187;49.412;20.956;2022-08-04T11:30:39;18.95;;;17.65;;
22046;SDS011;11187;49.412;20.956;2022-08-04T11:39:50;17.88;;;16.35;;
22046;SDS011;11187;49.412;20.956;2022-08-04T11:42:48;18.10;;;16.85;;
22046;SDS011;11187;49.412;20.956;2022-08-04T11:45:29;20.00;;;18.35;;
22046;SDS011;11187;49.412;20.956;2022-08-04T11:48:23;18.25;;;17.15;;
22046;SDS011;11187;49.412;20.956;2022-08-04T11:51:04;20.00;;;18.27;;
22046;SDS011;11187;49.412;20.956;2022-08-04T11:53:51;17.70;;;16.42;;
22046;SDS011;11187;49.412;20.956;2022-08-04T11:56:26;19.30;;;17.63;;
22046;SDS011;11187;49.412;20.956;2022-08-04T11:59:16;19.67;;;18.33;;
22046;SDS011;11187;49.412;20.956;2022-08-04T12:04:59;19.52;;;18.23;;
22046;SDS011;11187;49.412;20.956;2022-08-04T12:07:43;17.90;;;16.70;;
22046;SDS011;11187;49.412;20.956;2022-08-04T12:14:23;18.30;;;17.08;;
22046;SDS011;11187;49.412;20.956;2022-08-04T12:17:21;18.77;;;17.38;;
22046;SDS011;11187;49.412;20.956;2022-08-04T12:20:18;20.85;;;19.50;;
22046;SDS011;11187;49.412;20.956;2022-08-04T12:23:24;20.05;;;18.55;;
22046;SDS011;11187;49.412;20.956;2022-08-04T12:26:04;18.40;;;17.20;;
22046;SDS011;11187;49.412;20.956;2022-08-04T12:29:00;18.98;;;17.65;;
22046;SDS011;11187;49.412;20.956;2022-08-04T12:31:41;18.45;;;17.25;;
22046;SDS011;11187;49.412;20.956;2022-08-04T12:34:38;17.60;;;16.40;;
22046;SDS011;11187;49.412;20.956;2022-08-04T12:37:58;19.95;;;18.48;;
22046;SDS011;11187;49.412;20.956;2022-08-04T12:40:45;17.67;;;16.58;;
22046;SDS011;11187;49.412;20.956;2022-08-04T12:43:38;19.85;;;18.58;;
22046;SDS011;11187;49.412;20.956;2022-08-04T12:46:21;17.50;;;16.20;;
22046;SDS011;11187;49.412;20.956;2022-08-04T12:49:16;19.13;;;17.73;;
22046;SDS011;11187;49.412;20.956;2022-08-04T12:51:54;19.27;;;18.08;;
22046;SDS011;11187;49.412;20.956;2022-08-04T12:54:50;17.38;;;16.20;;
22046;SDS011;11187;49.412;20.956;2022-08-04T12:57:26;18.27;;;16.98;;
22046;SDS011;11187;49.412;20.956;2022-08-04T13:00:33;16.20;;;15.07;;
22046;SDS011;11187;49.412;20.956;2022-08-04T13:03:08;19.98;;;18.77;;
22046;SDS011;11187;49.412;20.956;2022-08-04T13:05:58;18.40;;;17.25;;
22046;SDS011;11187;49.412;20.956;2022-08-04T13:08:33;21.20;;;19.90;;
22046;SDS011;11187;49.412;20.956;2022-08-04T13:11:22;18.73;;;17.52;;
22046;SDS011;11187;49.412;20.956;2022-08-04T13:13:56;19.00;;;17.70;;
22046;SDS011;11187;49.412;20.956;2022-08-04T13:17:06;19.98;;;18.67;;
22046;SDS011;11187;49.412;20.956;2022-08-04T13:20:06;19.35;;;18.05;;
22046;SDS011;11187;49.412;20.956;2022-08-04T13:22:41;20.65;;;19.23;;
22046;SDS011;11187;49.412;20.956;2022-08-04T13:25:36;18.17;;;16.65;;
22046;SDS011;11187;49.412;20.956;2022-08-04T13:28:34;21.02;;;19.52;;
22046;SDS011;11187;49.412;20.956;2022-08-04T13:31:32;18.58;;;17.38;;
22046;SDS011;11187;49.412;20.956;2022-08-04T13:34:32;21.48;;;19.55;;
22046;SDS011;11187;49.412;20.956;2022-08-04T13:37:35;19.40;;;17.90;;
22046;SDS011;11187;49.412;20.956;2022-08-04T13:40:11;19.70;;;18.50;;
22046;SDS011;11187;49.412;20.956;2022-08-04T13:43:22;20.08;;;18.77;;
22046;SDS011;11187;49.412;20.956;2022-08-04T13:46:46;18.88;;;17.40;;
22046;SDS011;11187;49.412;20.956;2022-08-04T13:49:30;21.30;;;20.00;;
22046;SDS011;11187;49.412;20.956;2022-08-04T13:52:40;21.83;;;20.23;;
22046;SDS011;11187;49.412;20.956;2022-08-04T13:55:33;19.88;;;18.58;;
22046;SDS011;11187;49.412;20.956;2022-08-04T13:58:22;18.13;;;16.92;;
22046;SDS011;11187;49.412;20.956;2022-08-04T14:03:56;20.70;;;19.40;;
22046;SDS011;11187;49.412;20.956;2022-08-04T14:06:35;20.88;;;19.58;;
22046;SDS011;11187;49.412;20.956;2022-08-04T14:09:30;20.45;;;19.05;;
22046;SDS011;11187;49.412;20.956;2022-08-04T14:12:25;18.70;;;17.50;;
22046;SDS011;11187;49.412;20.956;2022-08-04T14:18:31;20.38;;;18.98;;
22046;SDS011;11187;49.412;20.956;2022-08-04T14:21:06;25.58;;;23.85;;
22046;SDS011;11187;49.412;20.956;2022-08-04T14:24:02;21.15;;;19.40;;
22046;SDS011;11187;49.412;20.956;2022-08-04T14:26:37;21.98;;;20.58;;
22046;SDS011;11187;49.412;20.956;2022-08-04T14:29:37;21.27;;;19.83;;
22046;SDS011;11187;49.412;20.956;2022-08-04T14:32:11;22.13;;;20.55;;
22046;SDS011;11187;49.412;20.956;2022-08-04T14:35:09;20.17;;;18.92;;
22046;SDS011;11187;49.412;20.956;2022-08-04T14:38:23;18.67;;;17.25;;
22046;SDS011;11187;49.412;20.956;2022-08-04T14:41:46;18.40;;;17.20;;
22046;SDS011;11187;49.412;20.956;2022-08-04T14:44:21;19.67;;;18.27;;
22046;SDS011;11187;49.412;20.956;2022-08-04T14:47:14;19.58;;;18.17;;
22046;SDS011;11187;49.412;20.956;2022-08-04T14:49:54;19.15;;;17.63;;
22046;SDS011;11187;49.412;20.956;2022-08-04T14:52:48;19.58;;;18.38;;
22046;SDS011;11187;49.412;20.956;2022-08-04T14:55:43;17.85;;;16.70;;
22046;SDS011;11187;49.412;20.956;2022-08-04T15:01:17;20.55;;;19.15;;
22046;SDS011;11187;49.412;20.956;2022-08-04T15:03:51;20.17;;;18.50;;
22046;SDS011;11187;49.412;20.956;2022-08-04T15:06:39;20.20;;;18.90;;
22046;SDS011;11187;49.412;20.956;2022-08-04T15:09:18;18.67;;;17.38;;
22046;SDS011;11187;49.412;20.956;2022-08-04T15:12:05;20.30;;;19.00;;
22046;SDS011;11187;49.412;20.956;2022-08-04T15:14:39;17.52;;;16.23;;
22046;SDS011;11187;49.412;20.956;2022-08-04T15:17:25;18.35;;;17.15;;
22046;SDS011;11187;49.412;20.956;2022-08-04T15:19:59;21.70;;;20.40;;
22046;SDS011;11187;49.412;20.956;2022-08-04T15:22:45;19.50;;;18.30;;
22046;SDS011;11187;49.412;20.956;2022-08-04T15:25:19;19.95;;;18.58;;
22046;SDS011;11187;49.412;20.956;2022-08-04T15:28:06;20.33;;;18.80;;
22046;SDS011;11187;49.412;20.956;2022-08-04T15:30:49;20.13;;;18.85;;
22046;SDS011;11187;49.412;20.956;2022-08-04T15:34:06;19.38;;;18.13;;
22046;SDS011;11187;49.412;20.956;2022-08-04T15:36:54;20.52;;;19.13;;
22046;SDS011;11187;49.412;20.956;2022-08-04T15:43:28;18.02;;;16.73;;
22046;SDS011;11187;49.412;20.956;2022-08-04T15:49:22;18.77;;;17.67;;
22046;SDS011;11187;49.412;20.956;2022-08-04T15:52:16;20.48;;;19.17;;
22046;SDS011;11187;49.412;20.956;2022-08-04T15:58:47;19.05;;;17.80;;
22046;SDS011;11187;49.412;20.956;2022-08-04T16:01:21;17.73;;;16.52;;
22046;SDS011;11187;49.412;20.956;2022-08-04T16:04:18;18.63;;;17.42;;
22046;SDS011;11187;49.412;20.956;2022-08-04T16:07:03;17.70;;;16.40;;
22046;SDS011;11187;49.412;20.956;2022-08-04T16:09:44;18.90;;;17.48;;
22046;SDS011;11187;49.412;20.956;2022-08-04T16:15:46;17.20;;;16.00;;
22046;SDS011;11187;49.412;20.956;2022-08-04T16:21:18;20.10;;;18.65;;
22046;SDS011;11187;49.412;20.956;2022-08-04T16:27:09;17.73;;;16.42;;
22046;SDS011;11187;49.412;20.956;2022-08-04T16:30:05;18.73;;;17.33;;
22046;SDS011;11187;49.412;20.956;2022-08-04T16:32:41;19.63;;;18.17;;
22046;SDS011;11187;49.412;20.956;2022-08-04T16:35:29;19.45;;;17.85;;
22046;SDS011;11187;49.412;20.956;2022-08-04T16:38:24;20.33;;;18.83;;
22046;SDS011;11187;49.412;20.956;2022-08-04T16:41:01;19.67;;;18.27;;
22046;SDS011;11187;49.412;20.956;2022-08-04T16:43:47;17.15;;;15.93;;
22046;SDS011;11187;49.412;20.956;2022-08-04T16:46:38;18.42;;;17.13;;
22046;SDS011;11187;49.412;20.956;2022-08-04T16:49:46;19.80;;;18.10;;
22046;SDS011;11187;49.412;20.956;2022-08-04T16:52:41;19.10;;;17.58;;
22046;SDS011;11187;49.412;20.956;2022-08-04T16:55:37;19.85;;;18.30;;
22046;SDS011;11187;49.412;20.956;2022-08-04T16:58:11;19.88;;;18.38;;
22046;SDS011;11187;49.412;20.956;2022-08-04T17:00:58;19.15;;;17.88;;
22046;SDS011;11187;49.412;20.956;2022-08-04T17:03:59;19.85;;;18.42;;
22046;SDS011;11187;49.412;20.956;2022-08-04T17:06:57;18.42;;;17.02;;
22046;SDS011;11187;49.412;20.956;2022-08-04T17:09:32;19.85;;;18.25;;
22046;SDS011;11187;49.412;20.956;2022-08-04T17:12:28;18.20;;;16.80;;
22046;SDS011;11187;49.412;20.956;2022-08-04T17:15:22;18.98;;;17.77;;
22046;SDS011;11187;49.412;20.956;2022-08-04T17:18:12;18.95;;;17.65;;
22046;SDS011;11187;49.412;20.956;2022-08-04T17:21:04;18.83;;;17.17;;
22046;SDS011;11187;49.412;20.956;2022-08-04T17:23:44;19.05;;;17.55;;
22046;SDS011;11187;49.412;20.956;2022-08-04T17:26:56;20.13;;;18.45;;
22046;SDS011;11187;49.412;20.956;2022-08-04T17:30:32;19.65;;;18.05;;
22046;SDS011;11187;49.412;20.956;2022-08-04T17:33:30;20.00;;;18.33;;
22046;SDS011;11187;49.412;20.956;2022-08-04T17:36:27;19.92;;;18.52;;
22046;SDS011;11187;49.412;20.956;2022-08-04T17:39:17;19.38;;;17.63;;
22046;SDS011;11187;49.412;20.956;2022-08-04T17:41:55;20.17;;;18.05;;
22046;SDS011;11187;49.412;20.956;2022-08-04T17:44:48;19.73;;;17.80;;
22046;SDS011;11187;49.412;20.956;2022-08-04T17:48:01;20.63;;;17.98;;
22046;SDS011;11187;49.412;20.956;2022-08-04T17:51:13;20.55;;;18.85;;
22046;SDS011;11187;49.412;20.956;2022-08-04T17:54:30;19.40;;;17.90;;
22046;SDS011;11187;49.412;20.956;2022-08-04T17:57:18;20.10;;;18.50;;
22046;SDS011;11187;49.412;20.956;2022-08-04T18:00:06;21.63;;;20.17;;
22046;SDS011;11187;49.412;20.956;2022-08-04T18:02:51;20.13;;;18.42;;
22046;SDS011;11187;49.412;20.956;2022-08-04T18:05:41;19.80;;;18.35;;
22046;SDS011;11187;49.412;20.956;2022-08-04T18:08:28;23.42;;;21.30;;
22046;SDS011;11187;49.412;20.956;2022-08-04T18:11:28;21.70;;;20.08;;
22046;SDS011;11187;49.412;20.956;2022-08-04T18:14:39;21.17;;;18.95;;
22046;SDS011;11187;49.412;20.956;2022-08-04T18:17:35;20.63;;;19.05;;
22046;SDS011;11187;49.412;20.956;2022-08-04T18:20:53;22.98;;;21.08;;
22046;SDS011;11187;49.412;20.956;2022-08-04T18:23:50;21.50;;;19.52;;
22046;SDS011;11187;49.412;20.956;2022-08-04T18:26:50;19.25;;;17.67;;
22046;SDS011;11187;49.412;20.956;2022-08-04T18:29:24;20.10;;;18.35;;
22046;SDS011;11187;49.412;20.956;2022-08-04T18:32:18;22.27;;;20.55;;
22046;SDS011;11187;49.412;20.956;2022-08-04T18:35:13;23.13;;;21.30;;
22046;SDS011;11187;49.412;20.956;2022-08-04T18:38:27;21.23;;;19.55;;
22046;SDS011;11187;49.412;20.956;2022-08-04T18:41:44;24.25;;;22.45;;
22046;SDS011;11187;49.412;20.956;2022-08-04T18:44:43;23.48;;;21.67;;
22046;SDS011;11187;49.412;20.956;2022-08-04T18:47:18;23.40;;;21.58;;
22046;SDS011;11187;49.412;20.956;2022-08-04T18:50:09;22.65;;;20.85;;
22046;SDS011;11187;49.412;20.956;2022-08-04T18:53:02;24.27;;;22.10;;
22046;SDS011;11187;49.412;20.956;2022-08-04T18:55:56;25.15;;;22.80;;
22046;SDS011;11187;49.412;20.956;2022-08-04T18:58:31;23.98;;;21.77;;
22046;SDS011;11187;49.412;20.956;2022-08-04T19:01:27;25.23;;;22.80;;
22046;SDS011;11187;49.412;20.956;2022-08-04T19:04:41;24.02;;;21.80;;
22046;SDS011;11187;49.412;20.956;2022-08-04T19:07:17;26.77;;;24.60;;
22046;SDS011;11187;49.412;20.956;2022-08-04T19:10:11;24.80;;;22.60;;
22046;SDS011;11187;49.412;20.956;2022-08-04T19:13:06;25.08;;;22.67;;
22046;SDS011;11187;49.412;20.956;2022-08-04T19:15:51;24.60;;;22.00;;
22046;SDS011;11187;49.412;20.956;2022-08-04T19:18:39;23.60;;;21.55;;
22046;SDS011;11187;49.412;20.956;2022-08-04T19:21:12;21.75;;;19.95;;
22046;SDS011;11187;49.412;20.956;2022-08-04T19:24:12;21.05;;;19.35;;
22046;SDS011;11187;49.412;20.956;2022-08-04T19:27:06;23.65;;;21.65;;
22046;SDS011;11187;49.412;20.956;2022-08-04T19:29:42;24.52;;;22.33;;
22046;SDS011;11187;49.412;20.956;2022-08-04T19:32:29;22.83;;;21.02;;
22046;SDS011;11187;49.412;20.956;2022-08-04T19:35:06;23.70;;;21.80;;
22046;SDS011;11187;49.412;20.956;2022-08-04T19:37:53;23.35;;;21.13;;
22046;SDS011;11187;49.412;20.956;2022-08-04T19:40:29;25.00;;;23.00;;
22046;SDS011;11187;49.412;20.956;2022-08-04T19:43:09;23.58;;;21.70;;
22046;SDS011;11187;49.412;20.956;2022-08-04T19:45:50;22.98;;;21.23;;
22046;SDS011;11187;49.412;20.956;2022-08-04T19:48:23;23.35;;;21.55;;
22046;SDS011;11187;49.412;20.956;2022-08-04T19:51:10;25.17;;;23.20;;
22046;SDS011;11187;49.412;20.956;2022-08-04T19:53:44;27.00;;;24.35;;
22046;SDS011;11187;49.412;20.956;2022-08-04T19:56:43;22.73;;;20.88;;
22046;SDS011;11187;49.412;20.956;2022-08-04T19:59:39;22.95;;;21.25;;
22046;SDS011;11187;49.412;20.956;2022-08-04T20:02:13;21.30;;;19.70;;
22046;SDS011;11187;49.412;20.956;2022-08-04T20:05:04;23.23;;;21.30;;
22046;SDS011;11187;49.412;20.956;2022-08-04T20:07:38;24.65;;;22.75;;